createdAt,value
2022-10-06T05:26:28.771Z,90.04
2022-10-06T05:29:37.619Z,90.04
2022-10-06T05:32:50.844Z,91.68
2022-10-06T05:36:23.225Z,90.70
2022-10-06T05:39:28.388Z,90.59
2022-10-06T05:42:32.587Z,90.78
2022-10-06T05:45:36.202Z,90.42
2022-10-06T05:48:55.666Z,89.35
2022-10-06T05:55:47.554Z,85.76
2022-10-06T05:58:53.439Z,86.01
2022-10-06T06:02:04.880Z,86.18
2022-10-06T06:05:34.516Z,87.00
2022-10-06T06:08:42.451Z,87.70
2022-10-06T06:11:48.809Z,87.51
2022-10-06T06:15:13.717Z,87.64
2022-10-06T06:18:25.178Z,87.90
2022-10-06T06:22:53.615Z,87.79
2022-10-06T06:34:30.239Z,88.38
2022-10-06T06:37:34.197Z,87.83
2022-10-06T06:40:55.757Z,87.40
2022-10-06T06:44:17.819Z,87.11
2022-10-06T06:47:35.854Z,86.69
2022-10-06T06:50:43.897Z,86.02
2022-10-06T06:53:55.351Z,85.67
2022-10-06T06:57:09.901Z,85.23
2022-10-06T07:00:18.520Z,85.46
2022-10-06T07:07:43.430Z,84.39
2022-10-06T07:10:57.578Z,83.30
2022-10-06T07:14:06.763Z,81.74
2022-10-06T07:17:35.459Z,80.12
2022-10-06T07:20:58.419Z,79.64
2022-10-06T07:24:31.322Z,78.87
2022-10-06T07:28:02.668Z,78.15
2022-10-06T07:35:26.598Z,75.50
2022-10-06T07:38:58.033Z,73.96
2022-10-06T07:42:11.040Z,71.47
2022-10-06T07:45:51.443Z,70.58
2022-10-06T07:49:11.122Z,70.65
2022-10-06T07:52:50.476Z,68.58
2022-10-06T07:55:53.938Z,66.28
2022-10-06T07:59:07.994Z,66.69
2022-10-06T08:02:23.709Z,66.29
2022-10-06T08:05:27.907Z,66.79
2022-10-06T08:08:50.225Z,69.33
2022-10-06T08:12:37.451Z,67.21
2022-10-06T08:15:40.558Z,64.67
2022-10-06T08:19:25.545Z,62.76
2022-10-06T08:22:31.158Z,62.03
2022-10-06T08:25:42.654Z,61.60
2022-10-06T08:28:52.527Z,60.86
2022-10-06T08:32:01.121Z,62.44
2022-10-06T08:35:40.741Z,64.03
2022-10-06T08:38:50.603Z,60.51
2022-10-06T08:42:00.801Z,59.50
2022-10-06T08:45:24.332Z,58.94
2022-10-06T08:48:39.853Z,59.37
2022-10-06T08:52:03.058Z,58.74
2022-10-06T08:55:30.925Z,58.99
2022-10-06T08:58:40.720Z,59.92
2022-10-06T09:01:48.044Z,59.89
2022-10-06T09:04:56.518Z,58.45
2022-10-06T09:07:59.618Z,59.22
2022-10-06T09:11:03.788Z,58.12
2022-10-06T09:14:14.995Z,56.63
2022-10-06T09:17:28.368Z,58.39
2022-10-06T09:20:44.491Z,57.52
2022-10-06T09:24:05.388Z,57.24
2022-10-06T09:27:28.397Z,56.72
2022-10-06T09:30:31.475Z,55.86
2022-10-06T09:33:40.094Z,57.23
2022-10-06T09:37:09.366Z,56.85
2022-10-06T09:40:36.777Z,54.74
2022-10-06T09:43:41.366Z,51.54
2022-10-06T09:46:44.368Z,52.28
2022-10-06T09:50:14.358Z,53.13
2022-10-06T09:53:21.772Z,50.90
2022-10-06T09:56:28.535Z,52.84
2022-10-06T09:59:39.958Z,53.93
2022-10-06T10:02:45.229Z,53.97
2022-10-06T10:05:57.090Z,55.06
2022-10-06T10:09:28.379Z,53.64
2022-10-06T10:12:34.430Z,53.54
2022-10-06T10:15:54.506Z,53.73
2022-10-06T10:19:18.796Z,54.34
2022-10-06T10:22:37.976Z,53.41
2022-10-06T10:26:02.405Z,52.76
2022-10-06T10:29:20.650Z,53.87
2022-10-06T10:33:13.116Z,55.54
2022-10-06T10:36:24.135Z,54.82
2022-10-06T10:39:33.831Z,56.60
2022-10-06T10:43:00.526Z,56.58
2022-10-06T10:46:27.559Z,56.33
2022-10-06T10:49:33.579Z,57.28
2022-10-06T10:52:42.710Z,58.24
2022-10-06T10:55:49.219Z,58.27
2022-10-06T10:59:27.865Z,58.80
2022-10-06T11:02:31.072Z,58.07
2022-10-06T11:05:52.937Z,58.84
2022-10-06T11:09:05.487Z,58.87
2022-10-06T11:12:38.481Z,60.19
2022-10-06T11:16:09.011Z,59.42
2022-10-06T11:19:24.212Z,59.22
2022-10-06T11:23:16.184Z,58.00
2022-10-06T11:27:08.429Z,59.79
2022-10-06T11:30:21.443Z,58.70
2022-10-06T11:33:37.432Z,58.46
2022-10-06T11:37:25.247Z,58.20
2022-10-06T11:41:10.251Z,60.16
2022-10-06T11:44:24.626Z,60.32
2022-10-06T11:47:39.758Z,57.87
2022-10-06T11:50:44.787Z,57.36
2022-10-06T11:53:58.889Z,59.01
2022-10-06T11:57:31.553Z,57.67
2022-10-06T12:00:35.402Z,57.79
2022-10-06T12:03:50.525Z,58.43
2022-10-06T12:06:56.064Z,58.49
2022-10-06T12:10:33.651Z,56.63
2022-10-06T12:14:44.604Z,57.45
2022-10-06T12:17:33.451Z,56.93
2022-10-06T12:20:59.520Z,56.34
2022-10-06T12:24:31.271Z,57.33
2022-10-06T12:27:43.196Z,57.10
2022-10-06T12:31:18.960Z,58.50
2022-10-06T12:35:20.180Z,57.62
2022-10-06T12:38:37.792Z,56.73
2022-10-06T12:45:46.276Z,55.50
2022-10-06T12:48:53.425Z,57.01
2022-10-06T12:52:44.847Z,56.73
2022-10-06T12:56:12.016Z,56.46
2022-10-06T12:59:41.135Z,55.85
2022-10-06T13:03:18.043Z,57.21
2022-10-06T13:06:35.317Z,56.22
2022-10-06T13:10:01.496Z,56.20
2022-10-06T13:13:30.314Z,57.84
2022-10-06T13:17:14.463Z,59.72
2022-10-06T13:21:01.903Z,58.87
2022-10-06T13:24:50.763Z,59.62
2022-10-06T13:36:31.971Z,58.13
2022-10-06T13:39:43.527Z,59.17
2022-10-06T13:42:49.673Z,60.19
2022-10-06T13:46:09.032Z,59.88
2022-10-06T13:49:34.081Z,60.31
2022-10-06T13:52:55.496Z,59.81
2022-10-06T13:56:00.216Z,62.15
2022-10-06T13:59:32.605Z,62.23
2022-10-06T14:02:43.892Z,61.97
2022-10-06T14:05:47.873Z,61.31
2022-10-06T14:08:55.538Z,62.48
2022-10-06T14:12:08.501Z,61.50
2022-10-06T14:15:30.614Z,61.28
2022-10-06T14:18:43.208Z,61.60
2022-10-06T14:21:51.797Z,61.68
2022-10-06T14:24:56.454Z,60.78
2022-10-06T14:28:06.651Z,60.36
2022-10-06T14:31:20.781Z,60.71
2022-10-06T14:34:31.621Z,63.05
2022-10-06T14:37:43.383Z,63.29
2022-10-06T14:40:49.971Z,63.72
2022-10-06T14:44:05.763Z,63.84
2022-10-06T14:47:10.103Z,63.61
2022-10-06T14:50:22.722Z,66.49
2022-10-06T14:53:36.238Z,66.53
2022-10-06T14:56:40.811Z,67.12
2022-10-06T14:59:52.469Z,67.97
2022-10-06T15:02:56.899Z,68.86
2022-10-06T15:06:24.549Z,68.33
2022-10-06T15:09:31.065Z,69.25
2022-10-06T15:12:35.697Z,70.98
2022-10-06T15:15:39.682Z,71.20
2022-10-06T15:18:45.880Z,71.24
2022-10-06T15:21:51.789Z,71.84
2022-10-06T15:24:56.724Z,72.35
2022-10-06T15:28:22.833Z,73.16
2022-10-06T15:31:36.770Z,74.09
2022-10-06T15:34:58.640Z,73.95
2022-10-06T15:38:15.773Z,74.93
2022-10-06T15:41:22.717Z,76.05
2022-10-06T15:44:26.072Z,75.83
2022-10-06T15:47:37.585Z,75.60
2022-10-06T15:50:43.501Z,76.00
2022-10-06T15:54:09.381Z,76.96
2022-10-06T15:57:29.049Z,76.84
2022-10-06T16:00:48.625Z,74.68
2022-10-06T16:04:09.082Z,75.23
2022-10-06T16:07:21.635Z,74.81
2022-10-06T16:10:45.453Z,74.55
2022-10-06T16:13:55.240Z,74.31
2022-10-06T16:17:11.573Z,74.84
2022-10-06T16:20:22.623Z,75.58
2022-10-06T16:23:32.632Z,75.32
2022-10-06T16:26:43.840Z,76.77
2022-10-06T16:38:50.583Z,77.35
2022-10-06T16:41:56.481Z,78.04
2022-10-06T16:45:12.518Z,78.16
2022-10-06T16:48:49.456Z,78.21
2022-10-06T16:52:21.514Z,78.61
2022-10-06T16:56:11.228Z,77.80
2022-10-06T16:59:29.517Z,77.43
2022-10-06T17:02:34.150Z,77.55
2022-10-06T17:05:48.773Z,77.35
2022-10-06T17:08:56.823Z,77.62
2022-10-06T17:12:12.256Z,77.70
2022-10-06T17:15:20.590Z,77.84
2022-10-06T17:19:14.064Z,77.89
2022-10-06T17:23:01.448Z,78.36
2022-10-06T17:26:06.865Z,79.02
2022-10-06T17:29:18.948Z,79.21
2022-10-06T17:32:33.583Z,79.48
2022-10-06T17:35:42.992Z,79.99
2022-10-06T17:39:00.378Z,80.45
2022-10-06T17:42:44.956Z,81.03
2022-10-06T17:46:18.764Z,81.07
2022-10-06T17:49:38.286Z,81.59
2022-10-06T17:52:58.150Z,82.00
2022-10-06T17:56:24.394Z,82.03
2022-10-06T17:59:36.586Z,82.06
2022-10-06T18:06:38.640Z,83.05
2022-10-06T18:10:04.834Z,83.06
2022-10-06T18:13:27.189Z,83.49
2022-10-06T18:16:55.957Z,83.76
2022-10-06T18:20:11.617Z,83.97
2022-10-06T18:23:24.799Z,84.30
2022-10-06T18:27:16.990Z,84.15
2022-10-06T18:44:09.523Z,85.93
2022-10-06T18:48:03.853Z,86.41
2022-10-06T18:51:27.260Z,86.58
2022-10-06T19:03:40.763Z,87.49
2022-10-06T19:12:28.353Z,88.18
2022-10-06T19:16:17.312Z,88.83
2022-10-06T19:36:39.510Z,88.27
2022-10-06T19:39:50.319Z,88.83
2022-10-06T19:47:08.295Z,88.83
2022-10-06T19:50:26.813Z,88.73
2022-10-06T19:53:36.929Z,89.18
2022-10-06T19:56:42.700Z,88.84
2022-10-06T19:59:51.608Z,88.91
2022-10-06T20:03:00.132Z,89.13
2022-10-06T20:06:09.409Z,88.82
2022-10-06T20:09:16.855Z,88.95
2022-10-06T20:13:12.587Z,89.20
2022-10-06T20:16:24.543Z,89.45
2022-10-06T20:19:31.549Z,89.37
2022-10-06T20:22:48.220Z,89.33
